Time;durP1;ratioP1;P1;durP2;ratioP2;P2;SDS_P1;SDS_P2;PMS_P1;PMS_P2;Temp;Humidity;BMP_temperature;BMP_pressure;BME280_temperature;BME280_humidity;BME280_pressure;Samples;Min_cycle;Max_cycle;Signal;HPM_P1;HPM_P2
2022/06/29 00:01:16;;;;;;;;;;;29.70;40.10;;;;;;5155185;27;19903;-66
2022/06/29 00:03:41;;;;;;;;;;;29.70;38.60;;;;;;5155313;27;20005;-67
2022/06/29 00:06:07;;;;;;;;;;;29.70;38.00;;;;;;5153419;27;19968;-67
2022/06/29 00:08:33;;;;;;;;;;;29.70;37.90;;;;;;5154995;27;20378;-66
2022/06/29 00:10:59;;;;;;;;;;;29.80;38.20;;;;;;5154865;27;19907;-66
2022/06/29 00:13:24;;;;;;;;;;;29.80;38.50;;;;;;5155169;27;20009;-67
2022/06/29 00:15:50;;;;;;;;;;;29.80;40.00;;;;;;5154697;27;19998;-66
2022/06/29 00:18:16;;;;;;;;;;;29.80;40.90;;;;;;5154815;27;19983;-66
2022/06/29 00:20:42;;;;;;;;;;;29.70;40.90;;;;;;5154831;27;19910;-68
2022/06/29 00:23:08;;;;;;;;;;;29.70;40.40;;;;;;5154985;27;20048;-67
2022/06/29 00:25:33;;;;;;;;;;;29.70;38.70;;;;;;5154644;27;19909;-66
2022/06/29 00:27:59;;;;;;;;;;;29.70;38.20;;;;;;5154371;27;19985;-66
2022/06/29 00:30:25;;;;;;;;;;;29.70;37.70;;;;;;5154488;27;19907;-66
2022/06/29 00:32:51;;;;;;;;;;;29.70;37.60;;;;;;5154648;27;19911;-66
2022/06/29 00:35:17;;;;;;;;;;;29.80;37.80;;;;;;5154241;27;19949;-66
2022/06/29 00:37:43;;;;;;;;;;;29.70;38.30;;;;;;5154514;27;19907;-66
2022/06/29 00:40:09;;;;;;;;;;;29.70;38.50;;;;;;5154539;27;19903;-66
2022/06/29 00:42:34;;;;;;;;;;;29.70;41.00;;;;;;5154160;27;19909;-66
2022/06/29 00:45:01;;;;;;;;;;;29.70;40.80;;;;;;5154214;27;20001;-66
2022/06/29 00:47:27;;;;;;;;;;;29.60;41.10;;;;;;5154001;27;19957;-65
2022/06/29 00:49:53;;;;;;;;;;;29.60;40.90;;;;;;5153770;27;19924;-66
2022/06/29 00:52:21;;;;;;;;;;;29.50;41.90;;;;;;5154052;27;19915;-66
2022/06/29 00:54:53;;;;;;;;;;;29.50;42.10;;;;;;5154228;27;20352;-66
2022/06/29 00:57:20;;;;;;;;;;;29.50;42.10;;;;;;5153787;27;20013;-66
2022/06/29 00:59:52;;;;;;;;;;;29.50;42.20;;;;;;5153753;27;20254;-65
2022/06/29 01:02:20;;;;;;;;;;;29.40;41.20;;;;;;5153893;27;19903;-65
2022/06/29 01:04:46;;;;;;;;;;;29.40;41.20;;;;;;5153649;27;20359;-65
2022/06/29 01:07:13;;;;;;;;;;;29.20;40.60;;;;;;5153491;27;19914;-66
2022/06/29 01:09:39;;;;;;;;;;;29.20;40.60;;;;;;5153622;27;20282;-66
2022/06/29 01:12:05;;;;;;;;;;;29.20;40.50;;;;;;5153602;27;20359;-66
2022/06/29 01:14:31;;;;;;;;;;;29.20;40.90;;;;;;5153302;27;20053;-66
2022/06/29 01:16:57;;;;;;;;;;;29.10;41.10;;;;;;5153143;27;19915;-65
2022/06/29 01:19:23;;;;;;;;;;;29.10;41.30;;;;;;5153506;27;20009;-66
2022/06/29 01:21:50;;;;;;;;;;;29.10;43.40;;;;;;5153146;27;19961;-66
2022/06/29 01:24:16;;;;;;;;;;;29.10;42.40;;;;;;5151644;27;19943;-65
2022/06/29 01:26:42;;;;;;;;;;;29.10;41.70;;;;;;5153312;27;19990;-65
2022/06/29 01:29:09;;;;;;;;;;;29.10;40.70;;;;;;5153570;27;19903;-65
2022/06/29 01:31:35;;;;;;;;;;;29.10;40.80;;;;;;5153026;27;20322;-66
2022/06/29 01:34:01;;;;;;;;;;;29.10;40.00;;;;;;5153375;27;19903;-66
2022/06/29 01:36:27;;;;;;;;;;;29.10;38.30;;;;;;5152836;27;20378;-66
2022/06/29 01:38:53;;;;;;;;;;;29.10;39.30;;;;;;5153183;27;19903;-66
2022/06/29 01:41:18;;;;;;;;;;;29.20;40.90;;;;;;5152831;27;19940;-65
2022/06/29 01:43:44;;;;;;;;;;;29.20;41.50;;;;;;5153096;27;19926;-65
2022/06/29 01:46:10;;;;;;;;;;;29.10;41.90;;;;;;5152863;27;19962;-66
2022/06/29 01:48:36;;;;;;;;;;;29.00;41.90;;;;;;5152725;27;20058;-65
2022/06/29 01:51:02;;;;;;;;;;;29.00;42.10;;;;;;5150927;27;20308;-65
2022/06/29 01:53:27;;;;;;;;;;;29.00;42.20;;;;;;5152576;27;19965;-66
2022/06/29 01:55:54;;;;;;;;;;;28.90;42.10;;;;;;5152502;27;19925;-66
2022/06/29 01:58:20;;;;;;;;;;;29.00;42.50;;;;;;5152893;27;19995;-66
2022/06/29 02:00:46;;;;;;;;;;;28.90;44.60;;;;;;5152726;27;19974;-65
2022/06/29 02:03:11;;;;;;;;;;;28.80;44.80;;;;;;5152396;27;19907;-65
2022/06/29 02:05:37;;;;;;;;;;;28.70;44.90;;;;;;5152351;27;19910;-65
2022/06/29 02:08:03;;;;;;;;;;;28.50;45.30;;;;;;5152652;27;20253;-66
2022/06/29 02:10:29;;;;;;;;;;;28.50;45.70;;;;;;5152449;27;19928;-65
2022/06/29 02:12:55;;;;;;;;;;;28.40;47.50;;;;;;5150684;27;20373;-65
2022/06/29 02:15:23;;;;;;;;;;;28.10;47.20;;;;;;5152376;27;19903;-65
2022/06/29 02:17:50;;;;;;;;;;;28.10;45.00;;;;;;5152628;27;19946;-65
2022/06/29 02:20:15;;;;;;;;;;;28.20;42.50;;;;;;5152270;27;19913;-65
2022/06/29 02:22:41;;;;;;;;;;;28.30;41.80;;;;;;5152295;27;19906;-65
2022/06/29 02:25:08;;;;;;;;;;;28.40;42.30;;;;;;5152031;27;19979;-65
2022/06/29 02:27:34;;;;;;;;;;;28.40;42.50;;;;;;5151984;27;20312;-65
2022/06/29 02:29:59;;;;;;;;;;;28.40;42.30;;;;;;5151696;27;20319;-65
2022/06/29 02:35:09;;;;;;;;;;;28.60;43.90;;;;;;5152497;27;19952;-65
2022/06/29 02:37:35;;;;;;;;;;;28.60;42.80;;;;;;5152418;27;20092;-65
2022/06/29 02:40:01;;;;;;;;;;;28.60;42.50;;;;;;5151787;27;19994;-66
2022/06/29 02:42:27;;;;;;;;;;;28.60;43.10;;;;;;5152031;27;20410;-65
2022/06/29 02:44:53;;;;;;;;;;;28.60;49.80;;;;;;5151981;27;20017;-65
2022/06/29 02:47:18;;;;;;;;;;;28.60;48.20;;;;;;5152003;27;20104;-65
2022/06/29 02:49:44;;;;;;;;;;;28.60;47.40;;;;;;5151872;27;19903;-65
2022/06/29 02:52:10;;;;;;;;;;;28.50;45.10;;;;;;5151650;27;20355;-67
2022/06/29 02:54:36;;;;;;;;;;;28.50;42.60;;;;;;5152931;27;19906;-65
2022/06/29 02:57:02;;;;;;;;;;;28.60;42.40;;;;;;5152744;27;19903;-65
2022/06/29 02:59:28;;;;;;;;;;;28.70;41.10;;;;;;5153084;27;20251;-65
2022/06/29 03:01:54;;;;;;;;;;;28.90;41.30;;;;;;5152559;27;19929;-65
2022/06/29 03:04:20;;;;;;;;;;;28.90;41.10;;;;;;5153028;27;19907;-65
2022/06/29 03:06:46;;;;;;;;;;;28.90;41.10;;;;;;5152411;27;19923;-65
2022/06/29 03:09:12;;;;;;;;;;;28.70;40.70;;;;;;5152491;27;20022;-65
2022/06/29 03:11:38;;;;;;;;;;;28.70;40.60;;;;;;5152563;27;20013;-65
2022/06/29 03:14:03;;;;;;;;;;;28.60;39.10;;;;;;5152463;27;19907;-65
2022/06/29 03:16:29;;;;;;;;;;;28.50;38.20;;;;;;5152440;27;19903;-65
2022/06/29 03:18:55;;;;;;;;;;;28.40;37.50;;;;;;5152316;27;19926;-65
2022/06/29 03:21:21;;;;;;;;;;;28.40;37.60;;;;;;5153080;27;19926;-65
2022/06/29 03:23:46;;;;;;;;;;;28.30;37.90;;;;;;5153017;27;20255;-66
2022/06/29 03:26:12;;;;;;;;;;;28.30;38.10;;;;;;5152973;27;19910;-66
2022/06/29 03:28:38;;;;;;;;;;;28.30;37.70;;;;;;5153604;27;19907;-65
2022/06/29 03:31:04;;;;;;;;;;;28.30;37.70;;;;;;5152839;27;19903;-65
2022/06/29 03:33:30;;;;;;;;;;;28.30;37.90;;;;;;5152964;27;19903;-65
2022/06/29 03:35:56;;;;;;;;;;;28.30;38.30;;;;;;5153098;27;19951;-65
2022/06/29 03:38:22;;;;;;;;;;;28.40;39.20;;;;;;5152837;27;19910;-65
2022/06/29 03:40:48;;;;;;;;;;;28.30;42.60;;;;;;5154206;27;19939;-67
2022/06/29 03:43:14;;;;;;;;;;;28.40;39.20;;;;;;5156185;27;19903;-65
2022/06/29 03:45:39;;;;;;;;;;;28.40;39.00;;;;;;5156699;27;19914;-67
2022/06/29 03:48:06;;;;;;;;;;;28.30;40.50;;;;;;5156424;27;19955;-65
2022/06/29 03:50:32;;;;;;;;;;;28.20;43.10;;;;;;5156175;27;19910;-65
2022/06/29 03:52:58;;;;;;;;;;;28.10;42.50;;;;;;5156336;27;20017;-65
2022/06/29 03:55:24;;;;;;;;;;;28.10;41.40;;;;;;5156206;27;19903;-65
2022/06/29 03:57:49;;;;;;;;;;;28.10;41.40;;;;;;5156341;27;19910;-65
2022/06/29 04:00:16;;;;;;;;;;;28.10;41.30;;;;;;5156405;27;20320;-65
2022/06/29 04:02:42;;;;;;;;;;;28.10;41.20;;;;;;5156342;27;19909;-65
2022/06/29 04:05:08;;;;;;;;;;;28.20;41.30;;;;;;5156054;27;19990;-65
2022/06/29 04:07:34;;;;;;;;;;;28.20;41.90;;;;;;5156330;27;19915;-65
2022/06/29 04:10:00;;;;;;;;;;;28.30;41.50;;;;;;5155676;27;20426;-65
2022/06/29 04:12:29;;;;;;;;;;;28.30;41.20;;;;;;5156121;27;20280;-65
2022/06/29 04:14:55;;;;;;;;;;;28.40;41.10;;;;;;5155814;27;19907;-66
2022/06/29 04:17:21;;;;;;;;;;;28.50;40.70;;;;;;5156883;27;19914;-66
2022/06/29 04:19:47;;;;;;;;;;;28.60;40.50;;;;;;5156383;27;19903;-65
2022/06/29 04:22:13;;;;;;;;;;;28.70;40.60;;;;;;5156433;27;20260;-65
2022/06/29 04:24:39;;;;;;;;;;;28.80;40.50;;;;;;5156299;27;19903;-65
2022/06/29 04:27:05;;;;;;;;;;;28.80;40.40;;;;;;5156230;27;20361;-66
2022/06/29 04:29:31;;;;;;;;;;;28.90;39.70;;;;;;5156215;27;19903;-66
2022/06/29 04:31:56;;;;;;;;;;;29.00;39.40;;;;;;5156133;27;19959;-65
2022/06/29 04:34:22;;;;;;;;;;;29.10;38.40;;;;;;5156552;27;20251;-67
2022/06/29 04:36:48;;;;;;;;;;;29.10;38.20;;;;;;5156728;27;19903;-66
2022/06/29 04:39:14;;;;;;;;;;;29.20;38.40;;;;;;5156886;27;20270;-66
2022/06/29 04:41:40;;;;;;;;;;;29.30;38.30;;;;;;5156451;27;19903;-66
2022/06/29 04:44:05;;;;;;;;;;;29.30;38.10;;;;;;5154795;27;19911;-66
2022/06/29 04:46:31;;;;;;;;;;;29.50;38.30;;;;;;5156747;27;19903;-66
2022/06/29 04:48:58;;;;;;;;;;;29.60;39.00;;;;;;5156660;27;19903;-66
2022/06/29 04:51:27;;;;;;;;;;;29.80;39.60;;;;;;5156144;27;19951;-66
2022/06/29 04:53:54;;;;;;;;;;;29.90;38.40;;;;;;5155901;27;19903;-66
2022/06/29 04:56:20;;;;;;;;;;;29.90;38.50;;;;;;5156155;27;19907;-65
2022/06/29 04:58:46;;;;;;;;;;;30.00;38.60;;;;;;5156004;27;19921;-65
2022/06/29 05:01:12;;;;;;;;;;;30.20;38.00;;;;;;5154548;27;19936;-66
2022/06/29 05:03:38;;;;;;;;;;;30.40;37.90;;;;;;5155659;27;19997;-66
2022/06/29 05:06:03;;;;;;;;;;;30.90;37.80;;;;;;5155994;27;19922;-66
2022/06/29 05:08:29;;;;;;;;;;;31.80;38.30;;;;;;5155838;27;19903;-66
2022/06/29 05:10:55;;;;;;;;;;;32.80;37.10;;;;;;5155744;27;20384;-66
2022/06/29 05:13:21;;;;;;;;;;;33.60;36.80;;;;;;5156047;27;19907;-66
2022/06/29 05:15:47;;;;;;;;;;;33.50;37.00;;;;;;5155759;27;19950;-66
2022/06/29 05:18:13;;;;;;;;;;;33.60;37.10;;;;;;5155317;27;19903;-66
2022/06/29 05:20:39;;;;;;;;;;;34.10;37.20;;;;;;5156194;27;19975;-66
2022/06/29 05:23:05;;;;;;;;;;;34.50;36.70;;;;;;5155330;27;19948;-66
2022/06/29 05:25:31;;;;;;;;;;;34.60;36.30;;;;;;5155499;27;19903;-66
2022/06/29 05:27:57;;;;;;;;;;;34.60;36.60;;;;;;5155941;27;20301;-66
2022/06/29 05:30:23;;;;;;;;;;;35.00;36.40;;;;;;5155758;27;20331;-66
2022/06/29 05:32:49;;;;;;;;;;;35.30;36.20;;;;;;5155351;27;19911;-66
2022/06/29 05:35:14;;;;;;;;;;;35.40;35.80;;;;;;5155282;27;19926;-66
2022/06/29 05:37:40;;;;;;;;;;;35.30;35.90;;;;;;5155206;27;19909;-66
2022/06/29 05:40:06;;;;;;;;;;;35.40;36.00;;;;;;5155194;27;20279;-66
2022/06/29 05:42:32;;;;;;;;;;;35.60;36.00;;;;;;5155159;27;20364;-67
2022/06/29 05:44:58;;;;;;;;;;;36.10;35.20;;;;;;5154058;27;20388;-66
2022/06/29 05:47:24;;;;;;;;;;;36.50;34.80;;;;;;5153529;27;19909;-65
2022/06/29 05:49:50;;;;;;;;;;;37.00;34.50;;;;;;5154477;27;19986;-66
2022/06/29 05:52:15;;;;;;;;;;;37.50;33.60;;;;;;5154257;27;19910;-66
2022/06/29 05:54:41;;;;;;;;;;;37.70;33.20;;;;;;5154504;27;19903;-66
2022/06/29 05:57:07;;;;;;;;;;;38.00;32.30;;;;;;5154616;27;19907;-66
2022/06/29 05:59:33;;;;;;;;;;;38.20;31.80;;;;;;5154134;27;19902;-66
2022/06/29 06:01:59;;;;;;;;;;;38.80;31.90;;;;;;5154441;27;19903;-66
2022/06/29 06:04:25;;;;;;;;;;;39.70;31.00;;;;;;5153248;27;19914;-66
2022/06/29 06:06:51;;;;;;;;;;;40.80;30.60;;;;;;5153696;27;19956;-66
2022/06/29 06:09:21;;;;;;;;;;;41.50;30.70;;;;;;5154174;27;20001;-66
2022/06/29 06:11:47;;;;;;;;;;;41.30;31.40;;;;;;5154029;27;19911;-66
2022/06/29 06:14:13;;;;;;;;;;;40.80;32.30;;;;;;5154429;27;19903;-66
2022/06/29 06:16:38;;;;;;;;;;;40.00;33.10;;;;;;5154269;27;19957;-66
2022/06/29 06:19:04;;;;;;;;;;;39.20;35.10;;;;;;5154585;27;19903;-66
2022/06/29 06:21:30;;;;;;;;;;;38.10;36.50;;;;;;5154206;27;19914;-66
2022/06/29 06:23:56;;;;;;;;;;;37.70;36.80;;;;;;5154551;27;19983;-66
2022/06/29 06:26:22;;;;;;;;;;;37.60;36.60;;;;;;5154218;27;20008;-66
2022/06/29 06:28:50;;;;;;;;;;;38.10;36.30;;;;;;5153995;27;20017;-66
2022/06/29 06:31:16;;;;;;;;;;;38.30;35.70;;;;;;5154691;27;19907;-66
2022/06/29 06:33:41;;;;;;;;;;;38.10;36.60;;;;;;5154627;27;19925;-65
2022/06/29 06:36:08;;;;;;;;;;;37.90;37.10;;;;;;5154110;27;19906;-66
2022/06/29 06:38:33;;;;;;;;;;;38.50;37.00;;;;;;5154645;27;19958;-66
2022/06/29 06:43:43;;;;;;;;;;;41.20;34.60;;;;;;5154081;27;19910;-66
2022/06/29 06:46:09;;;;;;;;;;;42.60;33.40;;;;;;5154212;27;19903;-66
2022/06/29 06:48:36;;;;;;;;;;;43.50;32.80;;;;;;5154522;27;19926;-67
2022/06/29 06:51:02;;;;;;;;;;;44.30;31.80;;;;;;5152783;27;19927;-67
2022/06/29 06:53:28;;;;;;;;;;;43.90;30.50;;;;;;5154180;27;19907;-66
2022/06/29 06:55:53;;;;;;;;;;;44.10;30.70;;;;;;5154201;27;19903;-66
2022/06/29 06:58:19;;;;;;;;;;;43.70;30.90;;;;;;5154413;27;20021;-68
2022/06/29 07:00:45;;;;;;;;;;;43.00;31.70;;;;;;5154447;27;19903;-67
2022/06/29 07:03:11;;;;;;;;;;;42.20;32.50;;;;;;5154156;27;20304;-66
2022/06/29 07:05:37;;;;;;;;;;;42.30;32.80;;;;;;5153563;27;19915;-66
2022/06/29 07:08:03;;;;;;;;;;;42.30;32.30;;;;;;5153778;27;19911;-66
2022/06/29 07:10:29;;;;;;;;;;;42.60;32.40;;;;;;5154363;27;19910;-66
2022/06/29 07:12:55;;;;;;;;;;;42.80;32.10;;;;;;5153778;27;19911;-66
2022/06/29 07:15:20;;;;;;;;;;;43.00;32.00;;;;;;5154190;27;19903;-66
2022/06/29 07:17:46;;;;;;;;;;;42.80;32.10;;;;;;5158186;27;20363;-66
2022/06/29 07:20:12;;;;;;;;;;;42.80;31.90;;;;;;5157675;27;19907;-67
2022/06/29 07:22:38;;;;;;;;;;;42.80;32.30;;;;;;5157408;27;20304;-66
2022/06/29 07:25:04;;;;;;;;;;;42.80;32.20;;;;;;5158058;27;20319;-66
2022/06/29 07:27:29;;;;;;;;;;;42.60;32.60;;;;;;5157733;27;20403;-66
2022/06/29 07:29:55;;;;;;;;;;;42.20;33.60;;;;;;5148362;27;19965;-65
2022/06/29 07:32:21;;;;;;;;;;;41.80;37.70;;;;;;5157355;27;19911;-65
2022/06/29 07:34:47;;;;;;;;;;;41.60;40.50;;;;;;5144978;27;20291;-66
2022/06/29 07:37:13;;;;;;;;;;;41.30;38.70;;;;;;5157358;27;20346;-65
2022/06/29 07:39:39;;;;;;;;;;;40.80;36.90;;;;;;5157637;27;19910;-66
2022/06/29 07:42:05;;;;;;;;;;;39.70;38.20;;;;;;5157281;27;20333;-63
2022/06/29 07:44:31;;;;;;;;;;;39.00;39.40;;;;;;5139427;27;20007;-65
2022/06/29 07:46:57;;;;;;;;;;;38.70;40.90;;;;;;5136416;27;19914;-66
2022/06/29 07:49:23;;;;;;;;;;;38.30;41.90;;;;;;5136585;27;20267;-65
2022/06/29 07:51:49;;;;;;;;;;;38.40;42.50;;;;;;5136274;27;20327;-65
2022/06/29 07:54:15;;;;;;;;;;;38.80;42.40;;;;;;5135870;27;19919;-65
2022/06/29 07:56:41;;;;;;;;;;;39.10;41.90;;;;;;5135492;27;19903;-65
2022/06/29 07:59:06;;;;;;;;;;;39.00;42.90;;;;;;5135581;27;19914;-65
2022/06/29 08:01:32;;;;;;;;;;;39.00;43.60;;;;;;5135617;27;19903;-65
2022/06/29 08:03:58;;;;;;;;;;;38.70;44.00;;;;;;5136210;27;19907;-63
2022/06/29 08:06:25;;;;;;;;;;;38.40;44.40;;;;;;5142901;27;19919;-62
2022/06/29 08:08:51;;;;;;;;;;;38.50;44.50;;;;;;5138482;27;20331;-66
2022/06/29 08:11:17;;;;;;;;;;;38.60;44.80;;;;;;5135426;27;19937;-65
2022/06/29 08:13:43;;;;;;;;;;;38.20;45.20;;;;;;5135376;27;19965;-64
2022/06/29 08:16:09;;;;;;;;;;;37.60;46.60;;;;;;5135697;27;20347;-65
2022/06/29 08:18:35;;;;;;;;;;;37.30;46.90;;;;;;5135970;27;19948;-64
2022/06/29 08:21:02;;;;;;;;;;;37.20;46.80;;;;;;5135525;27;19911;-65
2022/06/29 08:23:28;;;;;;;;;;;37.30;47.30;;;;;;5135889;27;19968;-65
2022/06/29 08:25:54;;;;;;;;;;;36.50;47.50;;;;;;5135620;27;19992;-65
2022/06/29 08:28:20;;;;;;;;;;;37.00;47.60;;;;;;5134351;27;19911;-66
2022/06/29 08:30:46;;;;;;;;;;;37.40;46.90;;;;;;5135806;27;19903;-65
2022/06/29 08:33:12;;;;;;;;;;;37.70;46.60;;;;;;5135227;27;19915;-66
2022/06/29 08:35:38;;;;;;;;;;;38.00;46.40;;;;;;5143511;27;19909;-66
2022/06/29 08:38:03;;;;;;;;;;;38.10;46.00;;;;;;5151314;27;19946;-66
2022/06/29 08:40:41;;;;;;;;;;;37.80;45.10;;;;;;5155571;27;19906;-65
2022/06/29 08:43:08;;;;;;;;;;;37.90;45.90;;;;;;5154692;27;19907;-65
2022/06/29 08:45:34;;;;;;;;;;;37.80;47.10;;;;;;5156587;27;19902;-66
2022/06/29 08:48:01;;;;;;;;;;;37.70;47.50;;;;;;5155908;27;19928;-66
2022/06/29 08:50:27;;;;;;;;;;;37.40;48.50;;;;;;5155922;27;20013;-66
2022/06/29 08:52:55;;;;;;;;;;;37.60;48.40;;;;;;5155374;27;19954;-67
2022/06/29 08:55:22;;;;;;;;;;;37.90;48.30;;;;;;5155657;27;20320;-66
2022/06/29 08:57:48;;;;;;;;;;;37.70;48.30;;;;;;5156159;27;19903;-66
2022/06/29 09:00:14;;;;;;;;;;;37.60;48.50;;;;;;5155662;27;20275;-66
2022/06/29 09:02:40;;;;;;;;;;;37.80;48.00;;;;;;5156082;27;20335;-66
2022/06/29 09:05:06;;;;;;;;;;;37.80;48.00;;;;;;5155535;27;19911;-66
2022/06/29 09:07:32;;;;;;;;;;;38.00;48.10;;;;;;5155302;27;19915;-66
2022/06/29 09:10:01;;;;;;;;;;;38.10;48.40;;;;;;5155277;27;19944;-66
2022/06/29 09:12:27;;;;;;;;;;;38.00;48.90;;;;;;5155490;27;19914;-66
2022/06/29 09:14:53;;;;;;;;;;;37.70;49.80;;;;;;5155428;27;19903;-66
2022/06/29 09:17:19;;;;;;;;;;;37.60;48.80;;;;;;5155202;27;19903;-66
2022/06/29 09:19:46;;;;;;;;;;;37.60;48.20;;;;;;5155742;27;19927;-65
2022/06/29 09:22:12;;;;;;;;;;;37.70;45.90;;;;;;5155163;27;20008;-67
2022/06/29 09:24:38;;;;;;;;;;;37.60;45.70;;;;;;5153674;27;19906;-65
2022/06/29 09:27:08;;;;;;;;;;;37.70;46.00;;;;;;5154989;27;20355;-66
2022/06/29 09:29:41;;;;;;;;;;;37.90;44.40;;;;;;5155245;27;19910;-66
2022/06/29 09:32:08;;;;;;;;;;;38.10;43.70;;;;;;5154796;27;19911;-65
2022/06/29 09:34:34;;;;;;;;;;;38.20;45.30;;;;;;5155228;27;20301;-66
2022/06/29 09:37:00;;;;;;;;;;;38.40;47.90;;;;;;5155014;27;19928;-66
2022/06/29 09:39:33;;;;;;;;;;;38.20;48.70;;;;;;5154993;27;19910;-66
2022/06/29 09:41:59;;;;;;;;;;;38.20;49.20;;;;;;5154580;27;20428;-66
2022/06/29 09:44:25;;;;;;;;;;;38.30;48.20;;;;;;5154661;27;19903;-66
2022/06/29 09:46:54;;;;;;;;;;;38.00;48.50;;;;;;5154526;27;19903;-66
2022/06/29 09:49:23;;;;;;;;;;;38.20;48.30;;;;;;5154923;27;19923;-66
2022/06/29 09:51:49;;;;;;;;;;;38.10;47.80;;;;;;5154368;27;19918;-66
2022/06/29 09:54:16;;;;;;;;;;;38.30;47.70;;;;;;5154376;27;19983;-66
2022/06/29 09:56:45;;;;;;;;;;;38.40;48.70;;;;;;5155130;27;20343;-66
2022/06/29 09:59:12;;;;;;;;;;;38.50;49.00;;;;;;5154519;27;19923;-66
2022/06/29 10:04:23;;;;;;;;;;;38.40;50.40;;;;;;5154998;27;19926;-66
2022/06/29 10:06:49;;;;;;;;;;;38.20;50.80;;;;;;5154149;27;19927;-66
2022/06/29 10:09:15;;;;;;;;;;;38.00;50.70;;;;;;5154430;27;19903;-66
2022/06/29 10:14:25;;;;;;;;;;;36.90;51.30;;;;;;5154102;27;19910;-66
2022/06/29 10:17:05;;;;;;;;;;;37.00;50.90;;;;;;5154255;27;19907;-66
2022/06/29 10:19:39;;;;;;;;;;;37.20;50.90;;;;;;5154723;27;19983;-66
2022/06/29 10:22:04;;;;;;;;;;;37.00;51.00;;;;;;5154489;27;19959;-66
2022/06/29 10:24:30;;;;;;;;;;;36.80;51.90;;;;;;5154105;27;19907;-67
2022/06/29 10:26:56;;;;;;;;;;;36.70;52.10;;;;;;5154005;27;19914;-67
2022/06/29 10:29:22;;;;;;;;;;;36.70;52.60;;;;;;5154546;27;20311;-66
2022/06/29 10:31:51;;;;;;;;;;;36.80;52.30;;;;;;5154427;27;19950;-66
2022/06/29 10:34:37;;;;;;;;;;;36.80;51.90;;;;;;5153958;27;19907;-66
2022/06/29 10:37:03;;;;;;;;;;;36.30;52.00;;;;;;5154144;27;19945;-66
2022/06/29 10:39:34;;;;;;;;;;;36.40;53.20;;;;;;5154252;27;20262;-66
2022/06/29 10:44:59;;;;;;;;;;;36.10;54.20;;;;;;5130334;27;19926;-66
2022/06/29 10:47:25;;;;;;;;;;;35.90;54.80;;;;;;5154087;27;19903;-68
2022/06/29 10:50:11;;;;;;;;;;;36.10;53.60;;;;;;5154045;27;20355;-67
2022/06/29 10:52:37;;;;;;;;;;;36.30;51.10;;;;;;5152847;27;19958;-66
2022/06/29 10:55:03;;;;;;;;;;;36.30;51.20;;;;;;5157484;27;19957;-66
2022/06/29 10:57:33;;;;;;;;;;;36.30;49.50;;;;;;5157643;27;19988;-66
2022/06/29 10:59:58;;;;;;;;;;;36.40;49.20;;;;;;5158019;27;19903;-66
2022/06/29 11:02:24;;;;;;;;;;;36.60;49.00;;;;;;5157682;27;20063;-66
2022/06/29 11:04:50;;;;;;;;;;;36.70;49.60;;;;;;5157824;27;20343;-66
2022/06/29 11:12:47;;;;;;;;;;;36.30;48.00;;;;;;5156409;27;19917;-66
2022/06/29 11:17:57;;;;;;;;;;;36.70;48.40;;;;;;5158885;27;19961;-67
2022/06/29 11:20:23;;;;;;;;;;;36.80;47.80;;;;;;5158045;27;19950;-67
2022/06/29 11:22:50;;;;;;;;;;;36.80;48.00;;;;;;5157900;27;20014;-66
2022/06/29 11:25:16;;;;;;;;;;;36.80;47.70;;;;;;5158140;27;19950;-66
2022/06/29 11:27:41;;;;;;;;;;;36.60;48.00;;;;;;5157937;27;19903;-66
2022/06/29 11:30:08;;;;;;;;;;;36.60;47.70;;;;;;5157738;27;19914;-66
2022/06/29 11:32:41;;;;;;;;;;;36.40;46.80;;;;;;5157953;27;19911;-66
2022/06/29 11:35:08;;;;;;;;;;;36.30;46.40;;;;;;5157817;27;19934;-66
2022/06/29 11:37:34;;;;;;;;;;;36.40;46.50;;;;;;5158555;27;19902;-66
2022/06/29 11:40:00;;;;;;;;;;;36.50;47.30;;;;;;5158125;27;20256;-66
2022/06/29 11:45:16;;;;;;;;;;;36.60;48.00;;;;;;5157747;27;20275;-66
2022/06/29 11:47:54;;;;;;;;;;;36.80;48.40;;;;;;5157564;27;19902;-67
2022/06/29 11:50:21;;;;;;;;;;;37.00;48.40;;;;;;5157375;27;19907;-66
2022/06/29 11:52:50;;;;;;;;;;;37.30;47.80;;;;;;5156915;27;20220;-67
2022/06/29 11:55:36;;;;;;;;;;;37.10;47.30;;;;;;5157234;27;19990;-66
2022/06/29 11:58:02;;;;;;;;;;;36.90;48.20;;;;;;5156741;27;20373;-66
2022/06/29 12:00:27;;;;;;;;;;;36.80;48.90;;;;;;5156718;27;19907;-66
2022/06/29 12:02:57;;;;;;;;;;;36.70;48.80;;;;;;5156980;27;19903;-66
2022/06/29 12:05:23;;;;;;;;;;;36.80;49.40;;;;;;5156624;27;19910;-66
2022/06/29 12:07:49;;;;;;;;;;;36.80;51.10;;;;;;5157081;27;19903;-66
2022/06/29 12:10:16;;;;;;;;;;;36.80;51.90;;;;;;5156888;27;19910;-67
2022/06/29 12:12:42;;;;;;;;;;;36.70;52.10;;;;;;5157435;27;19922;-66
2022/06/29 12:15:09;;;;;;;;;;;36.50;53.10;;;;;;5156955;27;19990;-66
2022/06/29 12:17:36;;;;;;;;;;;36.40;54.90;;;;;;5156966;27;19948;-66
2022/06/29 12:20:03;;;;;;;;;;;36.20;55.00;;;;;;5157191;27;19902;-67
2022/06/29 12:22:29;;;;;;;;;;;36.30;53.90;;;;;;5158019;27;19944;-66
2022/06/29 12:24:56;;;;;;;;;;;36.60;53.80;;;;;;5157452;27;19903;-66
2022/06/29 12:27:22;;;;;;;;;;;36.70;55.80;;;;;;5157174;27;19951;-66
2022/06/29 12:29:47;;;;;;;;;;;36.70;54.80;;;;;;5155792;27;20304;-66
2022/06/29 12:32:13;;;;;;;;;;;36.70;57.00;;;;;;5157044;27;19911;-67
2022/06/29 12:34:40;;;;;;;;;;;36.70;57.70;;;;;;5156946;27;20040;-66
2022/06/29 12:37:06;;;;;;;;;;;36.60;57.90;;;;;;5156900;27;19903;-66
2022/06/29 12:39:32;;;;;;;;;;;36.40;57.70;;;;;;5157347;27;19903;-67
2022/06/29 12:41:58;;;;;;;;;;;36.30;57.40;;;;;;5156829;27;19907;-66
2022/06/29 12:44:24;;;;;;;;;;;36.00;59.50;;;;;;5157161;27;19988;-66
2022/06/29 12:46:50;;;;;;;;;;;36.00;59.80;;;;;;5156610;27;20002;-66
2022/06/29 12:49:15;;;;;;;;;;;36.30;59.20;;;;;;5156210;27;19907;-66
2022/06/29 12:51:41;;;;;;;;;;;36.50;58.80;;;;;;5155848;27;19973;-67
2022/06/29 12:54:07;;;;;;;;;;;36.60;56.80;;;;;;5156501;27;19995;-67
2022/06/29 12:56:33;;;;;;;;;;;36.70;56.80;;;;;;5155930;27;20352;-67
2022/06/29 12:58:59;;;;;;;;;;;36.60;58.30;;;;;;5155921;27;20002;-67
2022/06/29 13:01:25;;;;;;;;;;;36.70;58.90;;;;;;5154534;27;19917;-66
2022/06/29 13:03:51;;;;;;;;;;;36.80;59.10;;;;;;5155621;27;19948;-66
2022/06/29 13:06:16;;;;;;;;;;;36.70;59.70;;;;;;5155637;27;19915;-66
2022/06/29 13:08:42;;;;;;;;;;;36.80;60.60;;;;;;5155625;27;19954;-66
2022/06/29 13:11:08;;;;;;;;;;;36.90;59.60;;;;;;5155702;27;19928;-66
2022/06/29 13:13:34;;;;;;;;;;;36.90;61.50;;;;;;5153744;27;19949;-66
2022/06/29 13:16:00;;;;;;;;;;;36.90;61.60;;;;;;5155662;27;20269;-66
2022/06/29 13:18:25;;;;;;;;;;;36.70;61.50;;;;;;5156072;27;19903;-66
2022/06/29 13:20:51;;;;;;;;;;;36.30;62.60;;;;;;5156526;27;19910;-66
2022/06/29 13:23:17;;;;;;;;;;;36.10;63.00;;;;;;5156066;27;19903;-66
2022/06/29 13:25:44;;;;;;;;;;;36.10;64.40;;;;;;5156218;27;19907;-67
2022/06/29 13:28:10;;;;;;;;;;;36.30;64.90;;;;;;5156181;27;19934;-66
2022/06/29 13:30:35;;;;;;;;;;;36.30;65.00;;;;;;5156503;27;20380;-67
2022/06/29 13:33:01;;;;;;;;;;;36.20;66.20;;;;;;5155861;27;19911;-66
2022/06/29 13:35:27;;;;;;;;;;;36.20;66.70;;;;;;5156441;27;19957;-67
2022/06/29 13:37:54;;;;;;;;;;;36.40;66.40;;;;;;5155931;27;20270;-68
2022/06/29 13:40:20;;;;;;;;;;;36.30;66.90;;;;;;5155708;27;20255;-66
2022/06/29 13:42:47;;;;;;;;;;;36.20;68.30;;;;;;5156363;27;19983;-67
2022/06/29 13:45:12;;;;;;;;;;;36.10;68.20;;;;;;5155564;27;19903;-66
2022/06/29 13:47:38;;;;;;;;;;;36.40;67.90;;;;;;5155631;27;19907;-66
2022/06/29 13:50:04;;;;;;;;;;;36.00;68.80;;;;;;5155398;27;20235;-66
2022/06/29 13:52:31;;;;;;;;;;;36.00;69.30;;;;;;5155455;27;19911;-67
2022/06/29 13:54:57;;;;;;;;;;;35.90;68.30;;;;;;5155069;27;19910;-67
2022/06/29 13:57:22;;;;;;;;;;;35.90;66.80;;;;;;5155504;27;19903;-67
2022/06/29 13:59:48;;;;;;;;;;;36.20;66.70;;;;;;5155274;27;19913;-67
2022/06/29 14:02:14;;;;;;;;;;;36.30;62.80;;;;;;5155138;27;19910;-66
2022/06/29 14:04:40;;;;;;;;;;;36.50;63.00;;;;;;5155144;27;19997;-67
2022/06/29 14:07:05;;;;;;;;;;;36.30;68.80;;;;;;5155062;27;19922;-67
2022/06/29 14:09:31;;;;;;;;;;;36.30;69.00;;;;;;5155518;27;20347;-67
2022/06/29 14:11:57;;;;;;;;;;;36.10;70.60;;;;;;5154806;27;19911;-67
2022/06/29 14:14:23;;;;;;;;;;;36.10;70.30;;;;;;5155035;27;19903;-67
2022/06/29 14:16:48;;;;;;;;;;;35.80;69.70;;;;;;5155014;27;19993;-67
2022/06/29 14:19:14;;;;;;;;;;;35.80;69.20;;;;;;5154821;27;19910;-67
2022/06/29 14:21:40;;;;;;;;;;;35.90;70.00;;;;;;5155521;27;20002;-67
2022/06/29 14:24:06;;;;;;;;;;;36.00;71.60;;;;;;5154874;27;20351;-67
2022/06/29 14:26:32;;;;;;;;;;;36.00;72.30;;;;;;5154038;27;19903;-66
2022/06/29 14:28:58;;;;;;;;;;;36.10;70.80;;;;;;5154664;27;19921;-67
2022/06/29 14:31:24;;;;;;;;;;;35.90;71.70;;;;;;5155250;27;19903;-67
2022/06/29 14:33:51;;;;;;;;;;;35.80;72.10;;;;;;5154993;27;19930;-67
2022/06/29 14:36:17;;;;;;;;;;;35.60;73.00;;;;;;5155337;27;19990;-66